Time;durP1;ratioP1;P1;durP2;ratioP2;P2;SDS_P1;SDS_P2;PMS_P1;PMS_P2;Temp;Humidity;BMP_temperature;BMP_pressure;BME280_temperature;BME280_humidity;BME280_pressure;Samples;Min_cycle;Max_cycle;Signal;HPM_P1;HPM_P2
2022/11/28 00:01:19;;;;;;;;;9.75;5.00;;;;;11.53;74.56;100774.69;4866896;29;45647;-65
2022/11/28 00:03:44;;;;;;;;;9.75;9.75;;;;;11.37;74.66;100736.94;4849499;29;45282;-65
2022/11/28 00:06:10;;;;;;;;;7.75;7.00;;;;;11.43;75.04;100738.53;4848865;29;45626;-65
2022/11/28 00:08:35;;;;;;;;;6.75;6.75;;;;;11.50;74.69;100740.06;4846923;29;47008;-65
2022/11/28 00:11:06;;;;;;;;;9.00;7.75;;;;;11.37;74.73;100723.56;4865326;29;45266;-65
2022/11/28 00:13:32;;;;;;;;;8.00;5.50;;;;;11.56;74.80;100742.50;4849157;29;45389;-65
2022/11/28 00:16:03;;;;;;;;;4.25;4.25;;;;;11.35;74.82;100701.38;4848910;29;45431;-65
2022/11/28 00:18:29;;;;;;;;;6.00;6.00;;;;;11.25;74.92;100681.28;4866086;29;46223;-65
2022/11/28 00:21:08;;;;;;;;;10.50;7.75;;;;;11.60;74.72;100729.91;4866245;29;45746;-65
2022/11/28 00:23:33;;;;;;;;;8.75;8.00;;;;;11.40;74.93;100703.91;4865330;29;45388;-65
2022/11/28 00:26:21;;;;;;;;;10.75;9.25;;;;;11.61;74.96;100737.88;4852578;29;45553;-65
2022/11/28 00:28:46;;;;;;;;;8.75;6.00;;;;;11.48;74.99;100715.19;4866536;29;46671;-65
2022/11/28 00:31:13;;;;;;;;;9.25;5.50;;;;;11.59;75.27;100729.00;4846539;29;45396;-65
2022/11/28 00:33:39;;;;;;;;;8.25;8.00;;;;;11.64;75.00;100727.06;4862328;29;45485;-65
2022/11/28 00:36:05;;;;;;;;;7.00;6.00;;;;;11.51;75.20;100701.72;4866409;29;45494;-65
2022/11/28 00:38:31;;;;;;;;;8.00;6.00;;;;;11.45;75.09;100694.78;4848715;29;47503;-65
2022/11/28 00:41:10;;;;;;;;;7.75;7.75;;;;;11.65;75.27;100723.44;4849758;29;45442;-65
2022/11/28 00:43:39;;;;;;;;;6.75;5.50;;;;;11.58;74.91;100711.25;4848624;29;45399;-65
2022/11/28 00:46:05;;;;;;;;;6.00;6.00;;;;;11.62;74.87;100718.22;4866432;29;45636;-65
2022/11/28 00:48:36;;;;;;;;;7.00;7.00;;;;;11.45;74.85;100689.44;4850735;29;48004;-65
2022/11/28 00:51:09;;;;;;;;;10.00;8.00;;;;;11.49;74.85;100690.19;4865877;29;45523;-65
2022/11/28 00:53:36;;;;;;;;;7.25;6.00;;;;;11.66;75.08;100719.84;4836874;29;45392;-65
2022/11/28 00:56:05;;;;;;;;;7.50;6.75;;;;;11.45;75.26;100688.56;4866198;29;45334;-65
2022/11/28 00:58:32;;;;;;;;;10.00;7.25;;;;;11.45;75.33;100689.44;4849308;29;48075;-65
2022/11/28 01:00:57;;;;;;;;;8.75;8.00;;;;;11.46;75.17;100676.94;4866204;29;45704;-65
2022/11/28 01:03:23;;;;;;;;;7.75;5.50;;;;;11.64;75.16;100707.47;4848549;29;45517;-65
2022/11/28 01:05:48;;;;;;;;;10.00;6.25;;;;;11.65;75.01;100704.72;4865882;29;45505;-65
2022/11/28 01:08:16;;;;;;;;;5.00;5.00;;;;;11.58;74.81;100697.00;4861340;29;45856;-65
2022/11/28 01:10:43;;;;;;;;;6.50;6.50;;;;;11.50;74.66;100681.25;4861763;29;45305;-65
2022/11/28 01:13:10;;;;;;;;;9.00;6.50;;;;;11.35;75.16;100649.75;4866249;29;45439;-65
2022/11/28 01:15:38;;;;;;;;;8.50;8.50;;;;;11.58;75.37;100691.66;4848315;29;45514;-65
2022/11/28 01:18:04;;;;;;;;;6.75;6.75;;;;;11.58;75.19;100707.72;4865486;29;45752;-65
2022/11/28 01:20:31;;;;;;;;;7.50;7.50;;;;;11.61;75.11;100711.13;4865722;29;45402;-65
2022/11/28 01:22:57;;;;;;;;;8.75;6.75;;;;;11.60;75.31;100706.69;4848609;29;45333;-65
2022/11/28 01:25:23;;;;;;;;;6.75;6.00;;;;;11.68;75.33;100715.31;4852195;29;45419;-65
2022/11/28 01:27:51;;;;;;;;;9.00;8.00;;;;;11.56;75.40;100688.16;4860952;29;46800;-65
2022/11/28 01:30:19;;;;;;;;;6.25;6.00;;;;;11.38;75.25;100671.03;4864180;29;45873;-65
2022/11/28 01:32:44;;;;;;;;;7.75;6.75;;;;;11.42;75.22;100684.19;4866027;29;45415;-65
2022/11/28 01:35:10;;;;;;;;;7.50;7.50;;;;;11.68;75.52;100720.66;4864498;29;45406;-65
2022/11/28 01:37:35;;;;;;;;;7.25;7.25;;;;;11.53;75.40;100696.28;4864430;29;45479;-65
2022/11/28 01:40:01;;;;;;;;;10.25;8.75;;;;;11.38;75.46;100677.22;4865595;29;45335;-65
2022/11/28 01:42:26;;;;;;;;;4.50;4.50;;;;;11.34;75.72;100678.25;4848877;29;45882;-65
2022/11/28 01:44:51;;;;;;;;;6.25;6.25;;;;;11.72;75.26;100726.75;4864579;29;45458;-65
2022/11/28 01:47:22;;;;;;;;;8.50;6.00;;;;;11.72;75.75;100731.25;4864826;29;46316;-65
2022/11/28 01:49:53;;;;;;;;;10.75;10.00;;;;;11.68;75.26;100731.34;4848664;29;45669;-65
2022/11/28 01:52:22;;;;;;;;;7.50;7.50;;;;;11.74;75.43;100738.25;4865131;29;45410;-65
2022/11/28 01:54:54;;;;;;;;;10.00;7.75;;;;;11.76;75.34;100743.56;4863155;29;45656;-65
2022/11/28 01:57:24;;;;;;;;;10.00;6.25;;;;;11.44;75.56;100697.50;4865172;29;46105;-65
2022/11/28 02:00:12;;;;;;;;;6.25;5.00;;;;;11.61;75.37;100726.28;4848537;29;45533;-65
2022/11/28 02:02:46;;;;;;;;;8.75;8.25;;;;;11.65;75.31;100741.31;4865323;29;45352;-65
2022/11/28 02:05:12;;;;;;;;;7.50;6.50;;;;;11.54;75.65;100725.63;4847112;29;45676;-65
2022/11/28 02:07:37;;;;;;;;;9.75;9.75;;;;;11.46;75.55;100711.69;4864862;29;46611;-65
2022/11/28 02:10:07;;;;;;;;;5.00;5.00;;;;;11.46;75.81;100709.91;4865302;29;45437;-65
2022/11/28 02:12:41;;;;;;;;;7.25;7.25;;;;;11.73;75.38;100749.91;4863877;29;45460;-65
2022/11/28 02:15:23;;;;;;;;;5.50;5.50;;;;;11.69;75.41;100742.91;4864278;29;45418;-65
2022/11/28 02:18:43;;;;;;;;;6.00;6.00;;;;;11.43;75.70;100701.97;4851829;29;47062;-65
2022/11/28 02:21:23;;;;;;;;;9.50;9.50;;;;;11.71;75.96;100735.72;4777426;29;45851;-65
2022/11/28 02:24:14;;;;;;;;;9.25;9.25;;;;;11.75;75.80;100744.50;4859805;29;45508;-65
2022/11/28 02:27:03;;;;;;;;;8.00;8.00;;;;;11.76;75.76;100738.22;4857633;29;45469;-65
2022/11/28 02:29:38;;;;;;;;;10.50;9.75;;;;;11.74;75.75;100732.91;4851909;29;46966;-65
2022/11/28 02:32:30;;;;;;;;;11.00;9.50;;;;;11.73;76.01;100720.50;4847758;29;45675;-65
2022/11/28 02:35:15;;;;;;;;;10.25;10.00;;;;;11.54;75.98;100696.22;4847221;29;45302;-65
2022/11/28 02:37:41;;;;;;;;;7.25;6.00;;;;;11.73;75.91;100728.53;4864524;29;45426;-65
2022/11/28 02:40:31;;;;;;;;;11.25;6.00;;;;;11.70;75.88;100725.97;4847846;29;47949;-65
2022/11/28 02:43:11;;;;;;;;;11.75;9.75;;;;;11.72;76.36;100734.78;4864913;29;45780;-65
2022/11/28 02:46:00;;;;;;;;;7.25;7.25;;;;;11.57;76.05;100705.94;4852190;29;45623;-65
2022/11/28 02:48:51;;;;;;;;;9.00;9.00;;;;;11.67;76.09;100710.03;4863781;29;45395;-65
2022/11/28 02:51:22;;;;;;;;;10.00;8.50;;;;;11.77;75.95;100719.44;4864031;29;45560;-65
2022/11/28 02:53:50;;;;;;;;;9.00;7.25;;;;;11.60;76.16;100679.09;4862285;29;45612;-65
2022/11/28 02:56:16;;;;;;;;;10.00;8.75;;;;;11.79;76.04;100695.31;4864583;29;45429;-65
2022/11/28 02:58:42;;;;;;;;;10.75;10.00;;;;;11.74;76.09;100692.81;4864654;29;45359;-65
2022/11/28 03:01:18;;;;;;;;;9.75;9.50;;;;;11.62;75.74;100669.22;4862789;29;47940;-65
2022/11/28 03:04:22;;;;;;;;;9.00;9.00;;;;;11.81;76.16;100697.00;4863607;29;45363;-65
2022/11/28 03:07:08;;;;;;;;;10.00;8.00;;;;;11.62;76.14;100667.41;4817995;29;45353;-65
2022/11/28 03:09:56;;;;;;;;;6.25;6.25;;;;;11.75;76.49;100681.19;4847008;29;45345;-65
2022/11/28 03:12:34;;;;;;;;;7.25;7.25;;;;;11.83;76.27;100694.28;4864262;29;45420;-65
2022/11/28 03:15:11;;;;;;;;;6.75;6.75;;;;;11.75;76.11;100677.66;4838719;29;45709;-65
2022/11/28 03:18:01;;;;;;;;;9.25;9.25;;;;;11.84;76.02;100682.63;4847490;29;45285;-65
2022/11/28 03:20:46;;;;;;;;;10.00;9.00;;;;;11.70;76.06;100664.44;4862296;29;45370;-65
2022/11/28 03:23:17;;;;;;;;;4.50;2.50;;;;;11.59;76.30;100654.16;4863811;29;46442;-65
2022/11/28 03:25:59;;;;;;;;;10.25;10.25;;;;;11.47;76.19;100636.78;4846537;29;46206;-65
2022/11/28 03:28:49;;;;;;;;;8.75;8.75;;;;;11.85;76.14;100697.75;4863164;29;45434;-64
2022/11/28 03:31:23;;;;;;;;;11.50;10.00;;;;;11.67;76.45;100668.09;4855852;29;45480;-65
2022/11/28 03:33:58;;;;;;;;;9.00;9.00;;;;;11.86;76.32;100700.38;4846342;29;47013;-65
2022/11/28 03:36:35;;;;;;;;;14.00;10.00;;;;;11.77;76.31;100686.47;4847018;29;45384;-65
2022/11/28 03:39:07;;;;;;;;;10.00;9.00;;;;;11.87;76.27;100707.44;4835589;29;45432;-65
2022/11/28 03:41:41;;;;;;;;;9.00;9.00;;;;;11.69;76.05;100670.72;4861236;29;45428;-65
2022/11/28 03:44:12;;;;;;;;;12.50;10.75;;;;;11.69;76.13;100681.41;4863242;29;46286;-65
2022/11/28 03:46:44;;;;;;;;;14.25;11.75;;;;;11.74;76.17;100678.56;4862727;29;45684;-65
2022/11/28 03:49:14;;;;;;;;;13.00;11.25;;;;;11.88;75.94;100697.66;4863592;29;45442;-65
2022/11/28 03:51:52;;;;;;;;;11.50;9.50;;;;;11.50;75.92;100627.78;4862245;29;45424;-65
2022/11/28 03:54:49;;;;;;;;;13.00;10.50;;;;;11.91;76.13;100692.22;4863054;29;45410;-65
2022/11/28 03:57:26;;;;;;;;;10.25;9.25;;;;;11.84;76.51;100679.97;4855612;29;45497;-65
2022/11/28 03:59:54;;;;;;;;;9.25;8.50;;;;;11.73;76.68;100661.66;4865453;29;45320;-65
2022/11/28 04:02:28;;;;;;;;;6.00;5.25;;;;;11.69;76.00;100652.00;4849458;29;45343;-65
2022/11/28 04:05:23;;;;;;;;;10.00;10.00;;;;;11.91;76.22;100688.63;4855422;29;45474;-65
2022/11/28 04:08:03;;;;;;;;;12.50;12.50;;;;;11.91;76.41;100685.94;4866707;29;45387;-65
2022/11/28 04:10:49;;;;;;;;;11.75;11.00;;;;;11.91;76.34;100689.53;4867116;29;45740;-65
2022/11/28 04:13:22;;;;;;;;;16.50;11.50;;;;;11.87;76.27;100687.88;4866032;29;45446;-65
2022/11/28 04:16:09;;;;;;;;;12.25;9.00;;;;;11.89;76.37;100699.38;4866720;29;46156;-65
2022/11/28 04:18:48;;;;;;;;;12.25;11.00;;;;;11.87;76.32;100702.09;4866407;29;45673;-65
2022/11/28 04:21:22;;;;;;;;;12.25;12.25;;;;;11.85;76.63;100692.41;4862033;29;45419;-65
2022/11/28 04:23:49;;;;;;;;;11.75;10.25;;;;;11.86;76.48;100687.00;4844552;29;45728;-65
2022/11/28 04:26:31;;;;;;;;;13.00;12.25;;;;;11.86;76.68;100688.78;4856364;29;46411;-65
2022/11/28 04:28:59;;;;;;;;;11.00;10.00;;;;;11.83;76.70;100680.91;4849648;29;45650;-65
2022/11/28 04:31:25;;;;;;;;;12.00;12.00;;;;;11.84;76.76;100686.19;4866666;29;45394;-65
2022/11/28 04:33:58;;;;;;;;;11.00;10.00;;;;;11.86;76.73;100691.47;4865530;29;45561;-65
2022/11/28 04:36:26;;;;;;;;;13.00;11.00;;;;;11.84;76.48;100687.97;4866377;29;45441;-65
2022/11/28 04:38:56;;;;;;;;;11.75;10.00;;;;;11.87;76.42;100688.72;4849185;29;45589;-65
2022/11/28 04:41:29;;;;;;;;;11.50;9.75;;;;;11.89;76.80;100694.03;4862702;29;45600;-65
2022/11/28 04:44:03;;;;;;;;;10.25;10.25;;;;;11.80;76.70;100684.56;4865669;29;45404;-65
2022/11/28 04:46:39;;;;;;;;;12.00;10.25;;;;;11.90;76.36;100705.63;4864380;29;47161;-65
2022/11/28 04:49:04;;;;;;;;;11.75;11.75;;;;;11.85;76.51;100697.75;4865573;29;45452;-65
2022/11/28 04:51:38;;;;;;;;;12.00;12.00;;;;;11.90;76.83;100709.16;4865648;29;45325;-65
2022/11/28 04:54:13;;;;;;;;;9.75;9.75;;;;;11.92;76.77;100711.81;4865345;29;45561;-65
2022/11/28 04:56:44;;;;;;;;;13.50;12.25;;;;;11.91;76.90;100718.97;4849386;29;47703;-65
2022/11/28 04:59:12;;;;;;;;;10.75;10.75;;;;;11.92;76.76;100712.66;4866330;29;45364;-65
2022/11/28 05:01:40;;;;;;;;;10.50;10.00;;;;;11.90;76.76;100698.47;4849726;29;45294;-65
2022/11/28 05:04:06;;;;;;;;;11.50;9.00;;;;;11.93;76.78;100698.38;4864178;29;45589;-65
2022/11/28 05:06:33;;;;;;;;;10.00;7.50;;;;;11.91;76.63;100676.16;4865680;29;45383;-65
2022/11/28 05:08:59;;;;;;;;;13.25;12.75;;;;;11.89;76.86;100680.66;4865996;29;45473;-65
2022/11/28 05:11:25;;;;;;;;;11.00;10.25;;;;;11.87;76.79;100683.38;4866177;29;45691;-65
2022/11/28 05:13:50;;;;;;;;;9.50;9.50;;;;;11.91;76.94;100692.22;4864862;29;45536;-65
2022/11/28 05:16:16;;;;;;;;;12.25;10.00;;;;;11.92;77.00;100699.28;4849035;29;47174;-65
2022/11/28 05:18:42;;;;;;;;;10.00;10.00;;;;;11.89;76.83;100688.66;4865271;29;45433;-65
2022/11/28 05:21:08;;;;;;;;;13.00;11.00;;;;;11.93;76.84;100686.78;4865848;29;45315;-65
2022/11/28 05:23:38;;;;;;;;;7.75;7.75;;;;;11.94;76.72;100684.03;4863387;29;45688;-65
2022/11/28 05:26:09;;;;;;;;;12.00;12.00;;;;;11.96;76.89;100695.59;4854008;29;46089;-65
2022/11/28 05:28:34;;;;;;;;;11.00;11.00;;;;;11.98;76.83;100695.53;4865852;29;45522;-65
2022/11/28 05:31:01;;;;;;;;;13.75;11.75;;;;;11.99;76.72;100684.75;4865944;29;45394;-65
2022/11/28 05:33:28;;;;;;;;;12.25;11.00;;;;;12.01;76.71;100673.97;4847896;29;45451;-64
2022/11/28 05:35:53;;;;;;;;;2.00;1.00;;;;;12.00;76.80;100678.47;4865566;29;46264;-65
2022/11/28 05:38:18;;;;;;;;;11.75;11.00;;;;;12.02;76.62;100681.09;4865457;29;45433;-65
2022/11/28 05:40:44;;;;;;;;;8.25;8.00;;;;;12.04;76.85;100687.25;4865861;29;45385;-65
2022/11/28 05:43:10;;;;;;;;;16.00;10.50;;;;;12.03;76.86;100682.84;4864510;29;45520;-64
2022/11/28 05:45:42;;;;;;;;;10.00;9.75;;;;;12.02;76.93;100684.63;4865694;29;45415;-64
2022/11/28 05:48:07;;;;;;;;;11.75;11.25;;;;;12.05;76.64;100700.56;4865032;29;45831;-65
2022/11/28 05:50:33;;;;;;;;;11.75;9.00;;;;;12.02;76.60;100692.66;4865552;29;45480;-65
2022/11/28 05:52:58;;;;;;;;;12.50;10.50;;;;;12.04;76.74;100689.91;4863910;29;45409;-65
2022/11/28 05:55:23;;;;;;;;;12.00;10.00;;;;;11.99;76.92;100682.06;4865283;29;51724;-64
2022/11/28 05:57:49;;;;;;;;;15.50;10.25;;;;;12.00;76.80;100690.97;4865117;29;45431;-64
2022/11/28 06:00:14;;;;;;;;;11.75;10.50;;;;;12.00;76.83;100693.66;4865549;29;45302;-65
2022/11/28 06:02:40;;;;;;;;;8.75;8.75;;;;;11.98;76.82;100685.69;4847022;29;45503;-64
2022/11/28 06:05:06;;;;;;;;;11.75;9.50;;;;;11.98;76.68;100684.81;4865326;29;45326;-65
2022/11/28 06:07:31;;;;;;;;;12.75;11.75;;;;;11.93;76.75;100673.41;4864827;29;45782;-64
2022/11/28 06:09:56;;;;;;;;;14.00;13.00;;;;;12.00;76.76;100690.97;4865050;29;49214;-65
2022/11/28 06:12:21;;;;;;;;;11.75;10.00;;;;;11.99;76.90;100690.09;4862503;29;45426;-65
2022/11/28 06:14:47;;;;;;;;;9.25;9.25;;;;;11.98;77.08;100693.72;4864618;29;48807;-65
2022/11/28 06:17:12;;;;;;;;;13.00;11.00;;;;;12.04;76.87;100709.53;4864569;29;45405;-65
2022/11/28 06:19:37;;;;;;;;;11.50;11.00;;;;;12.01;76.85;100712.31;4864861;29;45254;-65
2022/11/28 06:22:03;;;;;;;;;12.50;12.50;;;;;12.03;76.77;100713.13;4863806;29;45384;-65
2022/11/28 06:24:28;;;;;;;;;13.00;12.75;;;;;12.03;77.17;100723.84;4857149;29;46064;-65
2022/11/28 06:26:54;;;;;;;;;11.50;10.00;;;;;12.02;76.86;100726.56;4859300;29;45362;-65
2022/11/28 06:29:19;;;;;;;;;10.00;10.00;;;;;12.04;77.06;100724.69;4864208;29;45480;-65
2022/11/28 06:31:45;;;;;;;;;13.75;12.00;;;;;12.04;77.02;100724.69;4862547;29;45578;-65
2022/11/28 06:34:11;;;;;;;;;12.00;10.00;;;;;12.07;76.90;100726.41;4858299;29;45452;-65
2022/11/28 06:36:37;;;;;;;;;12.25;12.25;;;;;12.05;76.80;100721.97;4862460;29;45325;-65
2022/11/28 06:39:02;;;;;;;;;10.00;10.00;;;;;12.07;77.05;100719.22;4863745;29;45573;-65
2022/11/28 06:41:28;;;;;;;;;14.50;13.25;;;;;12.07;76.92;100729.94;4863807;29;45403;-65
2022/11/28 06:43:55;;;;;;;;;16.50;12.50;;;;;12.04;77.18;100724.69;4864685;29;45476;-65
2022/11/28 06:46:22;;;;;;;;;13.00;11.75;;;;;12.02;76.97;100722.06;4863322;29;45825;-65
2022/11/28 06:48:49;;;;;;;;;13.00;10.00;;;;;12.05;76.72;100732.66;4848013;29;45400;-65
2022/11/28 06:51:15;;;;;;;;;11.50;11.00;;;;;12.07;76.98;100737.97;4864089;29;45519;-65
2022/11/28 06:53:41;;;;;;;;;11.00;10.00;;;;;12.06;76.76;100738.88;4862308;29;45455;-65
2022/11/28 06:56:12;;;;;;;;;12.75;10.75;;;;;12.08;76.84;100741.50;4862978;29;45500;-65
2022/11/28 06:58:38;;;;;;;;;13.50;9.75;;;;;12.03;76.98;100731.84;4862409;29;45664;-65
2022/11/28 07:01:15;;;;;;;;;9.00;9.00;;;;;12.08;76.68;100734.38;4862891;29;45523;-66
2022/11/28 07:03:42;;;;;;;;;13.50;9.75;;;;;12.07;76.83;100729.06;4863365;29;45439;-66
2022/11/28 07:06:08;;;;;;;;;14.00;12.50;;;;;12.10;76.75;100734.31;4863745;29;45525;-66
2022/11/28 07:08:35;;;;;;;;;10.00;8.75;;;;;12.12;76.77;100740.47;4860761;29;45506;-66
2022/11/28 07:11:12;;;;;;;;;10.25;8.00;;;;;12.06;76.76;100741.56;4862926;29;45567;-67
2022/11/28 07:13:39;;;;;;;;;11.50;9.75;;;;;12.06;76.74;100738.88;4870842;29;45339;-67
2022/11/28 07:16:05;;;;;;;;;10.25;9.50;;;;;12.06;76.77;100741.56;4867460;29;45440;-66
2022/11/28 07:18:31;;;;;;;;;7.00;7.00;;;;;12.05;76.85;100745.19;4864015;29;45383;-66
2022/11/28 07:20:56;;;;;;;;;11.00;10.00;;;;;12.06;76.83;100738.88;4862968;29;45335;-66
2022/11/28 07:23:21;;;;;;;;;10.00;6.50;;;;;12.07;76.63;100739.78;4860778;29;45434;-66
2022/11/28 07:25:47;;;;;;;;;11.50;7.75;;;;;12.07;76.56;100739.78;4846475;29;47923;-66
2022/11/28 07:28:12;;;;;;;;;11.50;8.75;;;;;12.08;76.72;100736.16;4869727;29;45450;-66
2022/11/28 07:30:37;;;;;;;;;8.25;4.75;;;;;12.10;76.57;100739.66;4864749;29;51011;-66
2022/11/28 07:33:03;;;;;;;;;11.00;9.25;;;;;12.09;76.74;100744.13;4864270;29;45465;-66
2022/11/28 07:35:28;;;;;;;;;6.00;5.75;;;;;12.10;76.49;100745.88;4864676;29;45376;-66
2022/11/28 07:37:53;;;;;;;;;8.25;6.75;;;;;12.10;76.65;100751.22;4867098;29;45460;-66
2022/11/28 07:40:19;;;;;;;;;9.00;8.25;;;;;12.11;76.53;100763.69;4865651;29;45373;-67
2022/11/28 07:42:45;;;;;;;;;12.00;11.00;;;;;12.10;76.41;100756.56;4866740;29;45925;-66
2022/11/28 07:45:10;;;;;;;;;16.25;10.00;;;;;12.11;76.27;100758.34;4864110;29;45391;-67
2022/11/28 07:47:36;;;;;;;;;10.00;7.75;;;;;12.07;76.42;100756.69;4866970;29;45439;-66
2022/11/28 07:50:01;;;;;;;;;10.75;10.00;;;;;12.11;76.44;100774.38;4866969;29;47800;-67
2022/11/28 07:52:26;;;;;;;;;12.25;9.00;;;;;12.10;76.52;100767.28;4863656;29;46326;-66
2022/11/28 07:54:52;;;;;;;;;9.75;9.75;;;;;12.09;76.52;100770.00;4864464;29;45529;-65
2022/11/28 07:57:17;;;;;;;;;10.75;7.00;;;;;11.99;76.25;100758.78;4866296;29;45393;-66
2022/11/28 07:59:43;;;;;;;;;8.00;8.00;;;;;12.07;76.34;100774.56;4864198;29;45866;-66
2022/11/28 08:02:10;;;;;;;;;9.50;8.50;;;;;12.06;75.95;100770.97;4861580;29;45565;-66
2022/11/28 08:04:36;;;;;;;;;7.75;6.75;;;;;12.03;76.10;100765.78;4860899;29;45789;-66
2022/11/28 08:07:02;;;;;;;;;8.25;5.75;;;;;12.03;76.21;100772.00;4876600;29;45531;-66
2022/11/28 08:09:27;;;;;;;;;8.75;5.00;;;;;12.01;76.10;100767.63;4851635;29;45620;-66
2022/11/28 08:11:52;;;;;;;;;7.25;6.50;;;;;12.03;76.37;100781.81;4872396;29;46105;-66
2022/11/28 08:14:19;;;;;;;;;8.75;6.75;;;;;12.00;76.29;100776.59;4858378;29;45384;-65
2022/11/28 08:16:44;;;;;;;;;7.00;6.00;;;;;12.00;76.35;100782.81;4845038;29;45381;-66
2022/11/28 08:19:09;;;;;;;;;8.00;8.00;;;;;11.98;76.12;100786.47;4864889;29;45655;-66
2022/11/28 08:21:36;;;;;;;;;9.75;8.75;;;;;11.97;76.35;100784.72;4865579;29;51835;-66
2022/11/28 08:24:03;;;;;;;;;6.75;6.50;;;;;11.96;76.51;100782.97;4863658;29;45937;-66
2022/11/28 08:26:30;;;;;;;;;6.50;6.50;;;;;11.99;76.54;100797.09;4866480;29;45533;-66
2022/11/28 08:28:55;;;;;;;;;9.50;5.75;;;;;11.99;76.57;100796.22;4849353;29;45545;-66
2022/11/28 08:31:24;;;;;;;;;10.75;8.75;;;;;12.00;76.73;100795.31;4863547;29;45888;-64
2022/11/28 08:33:52;;;;;;;;;13.50;11.00;;;;;11.97;76.83;100796.28;4862066;29;45979;-64
2022/11/28 08:36:18;;;;;;;;;12.00;10.25;;;;;11.98;76.60;100794.50;4862855;29;45443;-64
2022/11/28 08:38:45;;;;;;;;;10.00;9.75;;;;;11.99;76.69;100785.53;4865844;29;45471;-64
2022/11/28 08:41:13;;;;;;;;;10.00;7.50;;;;;12.00;76.66;100788.16;4865299;29;46446;-67
2022/11/28 08:43:39;;;;;;;;;11.00;9.75;;;;;12.00;76.74;100789.97;4865450;29;46529;-64
2022/11/28 08:46:08;;;;;;;;;10.00;9.00;;;;;12.01;76.67;100781.00;4865869;29;45363;-65
2022/11/28 08:48:35;;;;;;;;;10.50;10.50;;;;;11.97;76.98;100771.34;4865178;29;45713;-68
2022/11/28 08:51:00;;;;;;;;;11.75;10.00;;;;;11.94;76.84;100769.66;4864566;29;45564;-69
2022/11/28 08:53:25;;;;;;;;;13.00;10.25;;;;;11.96;76.61;100774.94;4865122;29;45580;-69
2022/11/28 08:55:51;;;;;;;;;12.25;10.00;;;;;11.98;76.50;100782.00;4865202;29;45439;-70
2022/11/28 08:58:16;;;;;;;;;8.75;8.75;;;;;12.01;76.91;100778.31;4866122;29;45527;-70
2022/11/28 09:00:42;;;;;;;;;9.75;6.00;;;;;12.07;76.85;100793.28;4864423;29;54931;-70
2022/11/28 09:03:13;;;;;;;;;7.75;7.25;;;;;12.02;76.80;100780.06;4865941;29;45346;-70
2022/11/28 09:05:39;;;;;;;;;9.00;7.00;;;;;11.96;76.73;100766.91;4863224;29;45342;-69
2022/11/28 09:08:04;;;;;;;;;10.00;9.25;;;;;11.95;76.47;100766.06;4863755;29;45233;-69
2022/11/28 09:10:29;;;;;;;;;13.25;7.25;;;;;11.96;76.48;100766.91;4864575;29;46042;-69
2022/11/28 09:12:55;;;;;;;;;7.50;7.25;;;;;11.99;76.60;100782.84;4864615;29;45320;-66
2022/11/28 09:15:20;;;;;;;;;11.25;9.25;;;;;12.02;76.50;100785.44;4865319;29;46703;-67
2022/11/28 09:17:45;;;;;;;;;9.25;9.00;;;;;11.97;76.48;100776.69;4864456;29;45607;-67
2022/11/28 09:20:11;;;;;;;;;10.50;9.50;;;;;11.93;76.61;100775.94;4861685;29;61056;-70
2022/11/28 09:22:37;;;;;;;;;14.00;10.75;;;;;11.96;76.38;100782.97;4862317;29;45560;-70
2022/11/28 09:25:03;;;;;;;;;10.50;10.50;;;;;12.00;76.55;100787.28;4861628;29;45542;-68
2022/11/28 09:27:28;;;;;;;;;10.00;6.25;;;;;11.94;76.81;100782.16;4845785;29;45740;-69
2022/11/28 09:29:53;;;;;;;;;7.25;7.25;;;;;12.01;76.44;100797.03;4863230;29;46237;-69
2022/11/28 09:32:19;;;;;;;;;6.75;6.75;;;;;12.01;76.68;100797.03;4863242;29;45396;-69
2022/11/28 09:34:44;;;;;;;;;6.50;5.25;;;;;12.01;76.95;100794.38;4864051;29;45387;-71
2022/11/28 09:37:09;;;;;;;;;11.75;7.00;;;;;12.00;76.70;100806.00;4863197;29;45610;-71
2022/11/28 09:39:35;;;;;;;;;14.50;11.00;;;;;12.00;76.98;100798.00;4862467;29;48298;-71
2022/11/28 09:42:22;;;;;;;;;9.25;9.25;;;;;12.01;76.65;100805.06;4861474;29;45503;-71
2022/11/28 09:44:56;;;;;;;;;6.50;6.00;;;;;12.00;77.06;100801.53;4857462;29;45353;-71
2022/11/28 09:47:29;;;;;;;;;10.75;8.50;;;;;11.96;76.73;100791.00;4861738;29;45520;-70
2022/11/28 09:49:59;;;;;;;;;9.25;7.00;;;;;12.02;76.87;100810.38;4861931;29;45542;-70
2022/11/28 09:52:49;;;;;;;;;12.25;11.25;;;;;12.00;77.04;100809.56;4863902;29;45567;-70
2022/11/28 09:55:30;;;;;;;;;12.25;11.75;;;;;12.03;77.03;100809.44;4863514;29;45511;-70
2022/11/28 09:57:56;;;;;;;;;14.00;11.25;;;;;12.07;76.85;100804.84;4856949;29;45542;-70
2022/11/28 10:00:36;;;;;;;;;9.50;7.50;;;;;12.07;77.02;100803.97;4863044;29;45791;-70
2022/11/28 10:03:27;;;;;;;;;10.00;10.00;;;;;12.04;76.70;100802.28;4863228;29;46016;-70
2022/11/28 10:06:24;;;;;;;;;11.25;7.25;;;;;12.03;76.87;100800.56;4858736;29;45541;-72
2022/11/28 10:09:40;;;;;;;;;7.00;7.00;;;;;12.04;76.92;100803.19;4857734;29;45467;-77
2022/11/28 10:12:36;;;;;;;;;12.00;7.75;;;;;11.94;76.60;100783.03;4827927;29;46261;-70
2022/11/28 10:15:07;;;;;;;;;9.75;7.50;;;;;12.03;77.20;100798.75;4858106;29;45722;-70
2022/11/28 10:17:49;;;;;;;;;10.75;10.00;;;;;12.03;77.23;100798.75;4861753;29;45745;-71
2022/11/28 10:20:31;;;;;;;;;8.00;8.00;;;;;12.10;77.24;100810.09;4859781;29;45451;-70
2022/11/28 10:22:59;;;;;;;;;8.75;7.25;;;;;12.10;77.41;100809.22;4858485;29;45766;-71
2022/11/28 10:25:56;;;;;;;;;8.25;8.25;;;;;12.12;77.27;100818.94;4846569;29;45524;-70
2022/11/28 10:28:28;;;;;;;;;7.50;7.50;;;;;12.17;77.18;100813.41;4839535;29;45559;-71
2022/11/28 10:31:03;;;;;;;;;6.50;5.25;;;;;12.18;76.88;100812.50;4862397;29;45568;-70
2022/11/28 10:33:35;;;;;;;;;6.00;5.50;;;;;12.23;77.17;100814.03;4862436;29;46512;-71
2022/11/28 10:36:02;;;;;;;;;5.75;4.75;;;;;12.22;77.05;100803.41;4848329;29;45579;-71
2022/11/28 10:38:31;;;;;;;;;5.25;5.00;;;;;12.28;76.76;100807.63;4863264;29;45526;-70
2022/11/28 10:41:17;;;;;;;;;9.75;4.00;;;;;12.31;76.65;100802.16;4861162;29;45655;-71
2022/11/28 10:43:43;;;;;;;;;8.00;4.50;;;;;12.34;76.56;100802.91;4842929;29;48671;-71
2022/11/28 10:46:39;;;;;;;;;4.33;4.33;;;;;12.38;76.30;100801.03;4861824;29;45393;-71
2022/11/28 10:49:07;;;;;;;;;3.50;3.00;;;;;12.37;76.36;100793.91;4854140;29;45716;-71
2022/11/28 10:51:47;;;;;;;;;5.00;5.00;;;;;12.33;76.24;100790.47;4847034;29;45710;-71
2022/11/28 10:54:19;;;;;;;;;4.50;4.00;;;;;12.41;76.38;100792.84;4857659;29;45751;-71
2022/11/28 10:56:50;;;;;;;;;11.00;6.00;;;;;12.45;76.42;100799.84;4861573;29;45608;-71
2022/11/28 10:59:22;;;;;;;;;8.25;6.50;;;;;12.46;76.46;100804.22;4861543;29;45596;-71
2022/11/28 11:01:49;;;;;;;;;9.50;4.00;;;;;12.47;75.91;100795.28;4859320;29;45559;-71
2022/11/28 11:04:21;;;;;;;;;7.25;5.00;;;;;12.51;76.04;100798.72;4861098;29;45412;-71
2022/11/28 11:07:00;;;;;;;;;4.75;4.00;;;;;12.51;76.33;100794.25;4862613;29;45419;-71
2022/11/28 11:09:25;;;;;;;;;4.00;3.00;;;;;12.46;76.08;100776.59;4845984;29;45546;-71
2022/11/28 11:11:59;;;;;;;;;2.00;1.00;;;;;12.54;76.22;100788.75;4866976;29;45606;-69
2022/11/28 11:14:38;;;;;;;;;2.75;2.75;;;;;12.57;76.12;100795.78;4865026;29;45444;-71
2022/11/28 11:17:04;;;;;;;;;5.00;5.00;;;;;12.59;75.90;100800.13;4865510;29;45697;-71
2022/11/28 11:19:36;;;;;;;;;4.50;3.00;;;;;12.62;75.47;100800.97;4862506;29;45415;-71
2022/11/28 11:22:08;;;;;;;;;5.75;3.00;;;;;12.69;75.60;100815.84;4861543;29;45485;-71
2022/11/28 11:24:33;;;;;;;;;4.00;4.00;;;;;12.55;75.25;100795.84;4857227;29;47116;-70
2022/11/28 11:27:14;;;;;;;;;3.75;3.25;;;;;12.71;75.48;100816.66;4862921;29;45552;-72
2022/11/28 11:29:39;;;;;;;;;3.75;3.00;;;;;12.70;75.52;100810.44;4863741;29;45315;-71
2022/11/28 11:32:20;;;;;;;;;11.50;5.00;;;;;12.73;75.16;100794.25;4865573;29;45503;-71
2022/11/28 11:34:46;;;;;;;;;4.00;4.00;;;;;12.78;74.95;100794.06;4840679;29;47201;-71
2022/11/28 11:37:33;;;;;;;;;4.00;3.00;;;;;12.82;75.05;100793.00;4865152;29;45693;-71